Orbital elements of INTELSAT 904
| Launched | 22 February 2002 |
| Flight ended | – |
| Launch site | Europe's Spaceport, Kourou, French Guiana |
| Owner | International Telecommunications Satellite Organization (INTELSAT) |
| NORAD ID | 27380 |
| Alternative names |
IS-904 |
| Date fetched |
Epoch osculation |
Inc. [°] |
Ecc. | RA asc node [hr] |
Arg Peri. [°] |
Mean anom [°] |
Mean motion [rev/day] |
Abs. mag |
| Date fetched |
Epoch osculation |
Inc. [°] |
Ecc. | RA asc node [hr] |
Arg Peri. [°] |
Mean anom [°] |
Mean motion [rev/day] |
Abs. mag |
| 2026 May 09 17:57 | 2026 May 09 04:33:32 | 6.8233 | 0.00079 | 4.6429 | 347.0862 | 207.1940 | 1.00271 | – |
| 2026 May 08 17:57 | 2026 May 08 04:20:42 | 6.8209 | 0.00079 | 4.6437 | 346.4750 | 207.1940 | 1.00271 | – |
| 2026 May 07 17:58 | 2026 May 05 10:29:40 | 6.8145 | 0.00080 | 4.6458 | 344.5911 | 207.1940 | 1.00271 | – |
| 2026 May 06 17:57 | 2026 May 05 10:29:40 | 6.8145 | 0.00080 | 4.6458 | 344.5911 | 207.1940 | 1.00271 | – |
| 2026 May 05 17:57 | 2026 May 05 10:29:40 | 6.8145 | 0.00080 | 4.6458 | 344.5911 | 207.1940 | 1.00271 | – |
| 2026 May 04 17:57 | 2026 May 04 04:50:38 | 6.8118 | 0.00080 | 4.6468 | 343.8082 | 207.1940 | 1.00271 | – |
| 2026 May 03 17:57 | 2026 May 03 04:41:38 | 6.8095 | 0.00080 | 4.6476 | 342.9758 | 207.1940 | 1.00271 | – |
| 2026 May 02 17:57 | 2026 May 02 04:36:20 | 6.8073 | 0.00080 | 4.6484 | 342.1328 | 207.1940 | 1.00271 | – |
| 2026 May 01 17:56 | 2026 May 01 12:51:47 | 6.8057 | 0.00079 | 4.6489 | 341.5722 | 207.1940 | 1.00271 | – |
| 2026 Apr 30 17:56 | 2026 Apr 30 04:41:27 | 6.8027 | 0.00079 | 4.6500 | 340.3242 | 207.1940 | 1.00271 | – |
| 2026 Apr 29 17:57 | 2026 Apr 29 05:06:38 | 6.8004 | 0.00078 | 4.6507 | 339.5206 | 207.1940 | 1.00271 | – |
| 2026 Apr 28 17:56 | 2026 Apr 28 05:35:13 | 6.7981 | 0.00078 | 4.6515 | 338.8406 | 207.1940 | 1.00271 | – |
| 2026 Apr 27 17:58 | 2026 Apr 26 16:50:21 | 6.7944 | 0.00077 | 4.6527 | 338.9290 | 207.1940 | 1.00271 | – |
| 2026 Apr 26 17:58 | 2026 Apr 25 16:52:57 | 6.7919 | 0.00077 | 4.6534 | 338.1492 | 207.1940 | 1.00271 | – |
| 2026 Apr 25 17:58 | 2026 Apr 25 04:54:11 | 6.7906 | 0.00076 | 4.6538 | 337.8561 | 207.1940 | 1.00271 | – |
| 2026 Apr 24 17:59 | 2026 Apr 24 04:39:38 | 6.7879 | 0.00076 | 4.6545 | 337.1933 | 207.1940 | 1.00271 | – |
| 2026 Apr 23 17:57 | 2026 Apr 23 05:12:38 | 6.7853 | 0.00075 | 4.6553 | 336.4546 | 207.1940 | 1.00271 | – |
| 2026 Apr 22 17:57 | 2026 Apr 22 03:19:14 | 6.7823 | 0.00075 | 4.6561 | 335.6380 | 207.1940 | 1.00271 | – |
| 2026 Apr 21 17:57 | 2026 Apr 21 05:04:38 | 6.7797 | 0.00074 | 4.6568 | 335.0200 | 207.1940 | 1.00271 | – |
| 2026 Apr 20 17:57 | 2026 Apr 20 06:49:39 | 6.7770 | 0.00074 | 4.6575 | 334.4961 | 207.1940 | 1.00271 | – |
| 2026 Apr 19 17:58 | 2026 Apr 19 09:46:34 | 6.7745 | 0.00074 | 4.6582 | 334.0520 | 207.1940 | 1.00271 | – |
| 2026 Apr 18 17:56 | 2026 Apr 18 05:46:20 | 6.7712 | 0.00074 | 4.6591 | 333.5821 | 207.1940 | 1.00271 | – |
| 2026 Apr 16 17:57 | 2026 Apr 16 03:14:57 | 6.7654 | 0.00074 | 4.6608 | 332.6046 | 207.1940 | 1.00271 | – |
| 2026 Apr 14 17:57 | 2026 Apr 14 08:03:38 | 6.7606 | 0.00074 | 4.6623 | 331.9354 | 207.1940 | 1.00271 | – |
| 2026 Apr 13 17:57 | 2026 Apr 13 05:08:38 | 6.7577 | 0.00076 | 4.6632 | 332.3478 | 207.1940 | 1.00271 | – |
| 2026 Apr 12 17:57 | 2026 Apr 12 09:59:56 | 6.7557 | 0.00076 | 4.6639 | 332.1218 | 207.1940 | 1.00271 | – |